createdAt,value
2023-10-01T00:00:02.718Z,9.82
2023-10-01T00:02:19.827Z,9.80
2023-10-01T00:04:37.290Z,9.78
2023-10-01T00:06:54.704Z,9.78
2023-10-01T00:09:12.446Z,9.77
2023-10-01T00:11:30.150Z,9.74
2023-10-01T00:13:47.541Z,9.68
2023-10-01T00:16:06.021Z,9.65
2023-10-01T00:18:23.372Z,9.66
2023-10-01T00:20:40.544Z,9.66
2023-10-01T00:23:00.424Z,9.64
2023-10-01T00:25:17.924Z,9.65
2023-10-01T00:27:35.769Z,9.62
2023-10-01T00:29:53.158Z,9.57
2023-10-01T00:32:10.516Z,9.52
2023-10-01T00:34:28.013Z,9.54
2023-10-01T00:36:46.396Z,9.52
2023-10-01T00:39:03.485Z,9.48
2023-10-01T00:41:20.852Z,9.44
2023-10-01T00:43:38.661Z,9.46
2023-10-01T00:45:57.094Z,9.46
2023-10-01T00:48:14.274Z,9.50
2023-10-01T00:50:31.642Z,9.49
2023-10-01T00:52:49.094Z,9.45
2023-10-01T00:55:09.475Z,9.44
2023-10-01T00:57:26.893Z,9.42
2023-10-01T00:59:43.999Z,9.41
2023-10-01T01:02:01.876Z,9.40
2023-10-01T01:04:19.346Z,9.36
2023-10-01T01:06:36.545Z,9.35
2023-10-01T01:08:54.812Z,9.30
2023-10-01T01:11:12.943Z,9.26
2023-10-01T01:13:30.470Z,9.23
2023-10-01T01:15:51.087Z,9.28
2023-10-01T01:18:15.570Z,9.25
2023-10-01T01:20:32.992Z,9.23
2023-10-01T01:22:50.129Z,9.23
2023-10-01T01:25:07.087Z,9.23
2023-10-01T01:27:25.309Z,9.19
2023-10-01T01:29:43.520Z,9.15
2023-10-01T01:32:03.071Z,9.13
2023-10-01T01:34:20.647Z,9.09
2023-10-01T01:36:37.793Z,9.10
2023-10-01T01:38:55.342Z,9.09
2023-10-01T01:41:12.384Z,9.09
2023-10-01T01:43:29.744Z,9.07
2023-10-01T01:45:46.727Z,9.04
2023-10-01T01:48:04.643Z,9.02
2023-10-01T01:50:22.084Z,8.99
2023-10-01T01:52:39.169Z,8.99
2023-10-01T01:54:58.734Z,8.96
2023-10-01T01:57:16.147Z,8.95
2023-10-01T01:59:33.321Z,8.94
2023-10-01T02:01:50.803Z,8.95
2023-10-01T02:04:08.017Z,8.93
2023-10-01T02:06:25.487Z,8.95
2023-10-01T02:08:45.608Z,8.93
2023-10-01T02:11:03.013Z,8.92
2023-10-01T02:13:22.885Z,8.88
2023-10-01T02:15:40.059Z,8.88
2023-10-01T02:17:57.335Z,8.88
2023-10-01T02:20:15.176Z,8.88
2023-10-01T02:22:32.665Z,8.88
2023-10-01T02:24:49.801Z,8.89
2023-10-01T02:27:07.482Z,8.92
2023-10-01T02:29:25.180Z,8.94
2023-10-01T02:31:43.921Z,8.93
2023-10-01T02:34:01.522Z,8.89
2023-10-01T02:36:19.854Z,8.87
2023-10-01T02:38:36.835Z,8.84
2023-10-01T02:40:54.167Z,8.83
2023-10-01T02:43:11.598Z,8.84
2023-10-01T02:45:28.562Z,8.84
2023-10-01T02:47:53.201Z,8.82
2023-10-01T02:50:10.323Z,8.80
2023-10-01T02:52:27.826Z,8.80
2023-10-01T02:54:47.487Z,8.78
2023-10-01T02:57:07.056Z,8.78
2023-10-01T02:59:31.995Z,8.78
2023-10-01T03:01:49.571Z,8.79
2023-10-01T03:04:07.113Z,8.77
2023-10-01T03:06:24.300Z,8.78
2023-10-01T03:08:41.694Z,8.76
2023-10-01T03:10:59.085Z,8.77
2023-10-01T03:13:16.899Z,8.79
2023-10-01T03:15:35.629Z,8.79
2023-10-01T03:17:54.060Z,8.84
2023-10-01T03:20:11.573Z,8.83
2023-10-01T03:22:28.606Z,8.81
2023-10-01T03:24:46.348Z,8.80
2023-10-01T03:27:03.732Z,8.82
2023-10-01T03:29:20.925Z,8.80
2023-10-01T03:31:38.514Z,8.78
2023-10-01T03:33:56.277Z,8.74
2023-10-01T03:36:13.843Z,8.70
2023-10-01T03:38:32.121Z,8.67
2023-10-01T03:40:49.458Z,8.66
2023-10-01T03:43:06.790Z,8.60
2023-10-01T03:45:24.107Z,8.57
2023-10-01T03:47:41.925Z,8.55
2023-10-01T03:49:59.275Z,8.56
2023-10-01T03:52:16.344Z,8.59
2023-10-01T03:54:34.144Z,8.59
2023-10-01T03:56:51.208Z,8.58
2023-10-01T03:59:08.533Z,8.52
2023-10-01T04:01:26.128Z,8.54
2023-10-01T04:03:44.096Z,8.55
2023-10-01T04:06:01.560Z,8.57
2023-10-01T04:08:18.840Z,8.59
2023-10-01T04:10:36.072Z,8.58
2023-10-01T04:12:53.842Z,8.57
2023-10-01T04:15:11.238Z,8.58
2023-10-01T04:17:28.634Z,8.59
2023-10-01T04:19:45.725Z,8.61
2023-10-01T04:22:03.116Z,8.62
2023-10-01T04:24:20.422Z,8.65
2023-10-01T04:26:37.726Z,8.72
2023-10-01T04:28:55.004Z,8.78
2023-10-01T04:31:12.483Z,8.80
2023-10-01T04:33:30.103Z,8.77
2023-10-01T04:35:47.388Z,8.72
2023-10-01T04:38:04.735Z,8.63
2023-10-01T04:40:22.075Z,8.58
2023-10-01T04:42:39.404Z,8.54
2023-10-01T04:44:57.086Z,8.53
2023-10-01T04:47:14.532Z,8.51
2023-10-01T04:49:36.912Z,8.47
2023-10-01T04:51:55.601Z,8.45
2023-10-01T04:54:12.974Z,8.42
2023-10-01T04:56:30.622Z,8.41
2023-10-01T04:58:48.018Z,8.37
2023-10-01T05:01:06.312Z,8.34
2023-10-01T05:03:23.651Z,8.29
2023-10-01T05:05:41.889Z,8.27
2023-10-01T05:07:59.186Z,8.27
2023-10-01T05:10:16.486Z,8.24
2023-10-01T05:12:33.776Z,8.22
2023-10-01T05:14:51.475Z,8.17
2023-10-01T05:17:08.539Z,8.13
2023-10-01T05:19:25.840Z,8.07
2023-10-01T05:21:43.201Z,8.05
2023-10-01T05:24:00.242Z,8.05
2023-10-01T05:26:17.483Z,8.03
2023-10-01T05:28:34.868Z,8.02
2023-10-01T05:30:51.749Z,8.00
2023-10-01T05:33:09.066Z,8.01
2023-10-01T05:35:26.362Z,8.03
2023-10-01T05:37:43.310Z,8.08
2023-10-01T05:40:13.395Z,8.10
2023-10-01T05:42:31.155Z,8.11
2023-10-01T05:44:48.463Z,8.11
2023-10-01T05:47:05.804Z,8.09
2023-10-01T05:49:23.539Z,8.06
2023-10-01T05:51:40.449Z,8.04
2023-10-01T05:53:57.654Z,8.04
2023-10-01T05:56:15.012Z,8.01
2023-10-01T05:58:32.349Z,7.97
2023-10-01T06:00:49.996Z,7.95
2023-10-01T06:03:07.344Z,7.94
2023-10-01T06:05:24.658Z,7.93
2023-10-01T06:07:41.935Z,7.93
2023-10-01T06:09:58.916Z,7.93
2023-10-01T06:12:16.194Z,7.93
2023-10-01T06:14:33.921Z,7.94
2023-10-01T06:16:51.261Z,7.93
2023-10-01T06:19:08.943Z,7.93
2023-10-01T06:21:26.745Z,7.92
2023-10-01T06:23:44.461Z,7.93
2023-10-01T06:26:01.811Z,7.92
2023-10-01T06:28:19.168Z,7.88
2023-10-01T06:30:36.479Z,7.88
2023-10-01T06:32:54.293Z,7.90
2023-10-01T06:35:11.317Z,7.92
2023-10-01T06:37:28.990Z,7.94
2023-10-01T06:39:47.738Z,7.93
2023-10-01T06:42:04.783Z,7.96
2023-10-01T06:44:22.080Z,8.00
2023-10-01T06:46:39.463Z,8.02
2023-10-01T06:48:56.436Z,8.05
2023-10-01T06:51:13.714Z,8.09
2023-10-01T06:53:31.031Z,8.14
2023-10-01T06:55:47.980Z,8.16
2023-10-01T06:58:05.301Z,8.24
2023-10-01T07:00:22.315Z,8.29
2023-10-01T07:02:39.315Z,8.32
2023-10-01T07:05:07.878Z,8.35
2023-10-01T07:07:30.557Z,8.35
2023-10-01T07:09:47.971Z,8.37
2023-10-01T07:12:06.314Z,8.44
2023-10-01T07:14:23.576Z,8.49
2023-10-01T07:16:41.337Z,8.59
2023-10-01T07:18:58.971Z,8.71
2023-10-01T07:21:16.530Z,8.84
2023-10-01T07:23:34.805Z,8.99
2023-10-01T07:25:52.072Z,9.17
2023-10-01T07:28:09.461Z,9.35
2023-10-01T07:30:26.794Z,9.50
2023-10-01T07:32:44.164Z,9.65
2023-10-01T07:35:01.332Z,9.81
2023-10-01T07:37:18.816Z,9.93
2023-10-01T07:39:36.086Z,10.08
2023-10-01T07:41:53.407Z,10.23
2023-10-01T07:44:11.111Z,10.37
2023-10-01T07:46:28.506Z,10.46
2023-10-01T07:48:45.820Z,10.59
2023-10-01T07:51:03.466Z,10.72
2023-10-01T07:53:20.729Z,10.86
2023-10-01T07:55:38.116Z,10.99
2023-10-01T07:57:55.525Z,11.09
2023-10-01T08:00:12.472Z,11.23
2023-10-01T08:02:29.871Z,11.36
2023-10-01T08:04:47.219Z,11.47
2023-10-01T08:07:04.184Z,11.59
2023-10-01T08:09:22.141Z,11.76
2023-10-01T08:11:41.269Z,11.90
2023-10-01T08:13:59.589Z,12.01
2023-10-01T08:16:16.951Z,12.22
2023-10-01T08:18:33.963Z,12.36
2023-10-01T08:20:51.684Z,12.51
2023-10-01T08:23:09.961Z,12.68
2023-10-01T08:25:26.963Z,12.81
2023-10-01T08:27:44.411Z,12.88
2023-10-01T08:30:01.703Z,13.04
2023-10-01T08:32:18.682Z,13.19
2023-10-01T08:34:35.949Z,13.32
2023-10-01T08:36:53.214Z,13.46
2023-10-01T08:39:10.547Z,13.64
2023-10-01T08:41:27.859Z,13.70
2023-10-01T08:43:45.240Z,13.85
2023-10-01T08:46:02.286Z,14.06
2023-10-01T08:48:20.792Z,14.23
2023-10-01T08:50:38.153Z,14.37
2023-10-01T08:52:56.406Z,14.54
2023-10-01T08:55:13.781Z,14.74
2023-10-01T08:57:32.510Z,14.89
2023-10-01T08:59:49.857Z,15.08
2023-10-01T09:02:06.844Z,15.28
2023-10-01T09:04:24.240Z,15.46
2023-10-01T09:06:42.700Z,15.65
2023-10-01T09:09:00.453Z,15.82
2023-10-01T09:11:18.539Z,16.01
2023-10-01T09:13:35.568Z,16.17
2023-10-01T09:15:52.854Z,16.40
2023-10-01T09:18:10.387Z,16.62
2023-10-01T09:20:28.145Z,16.79
2023-10-01T09:22:45.515Z,16.98
2023-10-01T09:25:03.042Z,17.14
2023-10-01T09:27:20.592Z,17.29
2023-10-01T09:29:38.976Z,17.50
2023-10-01T09:31:56.335Z,17.68
2023-10-01T09:34:13.765Z,17.83
2023-10-01T09:36:31.218Z,17.96
2023-10-01T09:38:48.168Z,18.10
2023-10-01T09:41:05.564Z,18.20
2023-10-01T09:43:22.875Z,18.41
2023-10-01T09:45:40.688Z,18.63
2023-10-01T09:47:58.102Z,18.85
2023-10-01T09:50:16.393Z,19.06
2023-10-01T09:52:33.768Z,19.25
2023-10-01T09:54:51.098Z,19.38
2023-10-01T09:57:08.089Z,19.63
2023-10-01T09:59:25.351Z,19.80
2023-10-01T10:01:43.840Z,19.97
2023-10-01T10:04:00.954Z,20.17
2023-10-01T10:06:19.030Z,20.37
2023-10-01T10:08:36.172Z,20.50
2023-10-01T10:10:53.502Z,20.62
2023-10-01T10:13:10.580Z,20.77
2023-10-01T10:15:27.912Z,20.94
2023-10-01T10:17:45.187Z,21.10
2023-10-01T10:20:02.146Z,21.30
2023-10-01T10:22:20.559Z,21.27
2023-10-01T10:24:37.918Z,21.41
2023-10-01T10:26:55.353Z,21.53
2023-10-01T10:29:13.744Z,21.56
2023-10-01T10:31:32.595Z,21.73
2023-10-01T10:33:50.243Z,21.80
2023-10-01T10:36:07.597Z,21.95
2023-10-01T10:38:24.474Z,21.86
2023-10-01T10:40:41.802Z,22.03
2023-10-01T10:42:59.415Z,22.10
2023-10-01T10:45:17.097Z,22.25
2023-10-01T10:47:34.574Z,22.58
2023-10-01T10:49:51.914Z,22.73
2023-10-01T10:52:10.301Z,22.78
2023-10-01T10:54:27.649Z,22.85
2023-10-01T10:56:45.026Z,22.93
2023-10-01T10:59:02.590Z,23.10
2023-10-01T11:01:21.328Z,23.24
2023-10-01T11:03:38.735Z,23.37
2023-10-01T11:05:56.013Z,23.45
2023-10-01T11:08:13.119Z,23.21
2023-10-01T11:10:30.508Z,23.46
2023-10-01T11:12:49.331Z,23.61
2023-10-01T11:15:08.586Z,23.66
2023-10-01T11:17:25.825Z,23.77
2023-10-01T11:19:43.220Z,23.70
2023-10-01T11:22:00.353Z,23.83
2023-10-01T11:24:17.692Z,23.90
2023-10-01T11:26:35.371Z,23.73
2023-10-01T11:28:52.294Z,23.87
2023-10-01T11:31:09.602Z,24.14
2023-10-01T11:33:27.124Z,24.14
2023-10-01T11:35:44.505Z,24.13
2023-10-01T11:38:01.441Z,24.15
2023-10-01T11:40:19.188Z,24.19
2023-10-01T11:42:37.557Z,24.26
2023-10-01T11:44:54.862Z,24.42
2023-10-01T11:47:12.871Z,24.38
2023-10-01T11:49:30.346Z,24.40
2023-10-01T11:51:47.652Z,24.54
2023-10-01T11:54:04.945Z,24.68
2023-10-01T11:56:22.297Z,24.84
2023-10-01T11:58:39.682Z,24.89
2023-10-01T12:00:58.017Z,24.98
2023-10-01T12:03:15.458Z,25.12
2023-10-01T12:05:32.808Z,25.02
2023-10-01T12:07:50.191Z,25.02
2023-10-01T12:10:07.477Z,25.10
2023-10-01T12:12:24.928Z,24.94
2023-10-01T12:14:42.609Z,24.96
2023-10-01T12:16:59.545Z,25.17
2023-10-01T12:19:17.611Z,25.27
2023-10-01T12:21:35.327Z,25.45
2023-10-01T12:23:52.883Z,25.62
2023-10-01T12:26:10.156Z,25.62
2023-10-01T12:28:27.441Z,25.48
2023-10-01T12:30:44.598Z,25.39
2023-10-01T12:33:02.897Z,25.47
2023-10-01T12:35:20.278Z,25.51
2023-10-01T12:37:37.598Z,25.58
2023-10-01T12:39:54.716Z,25.67
2023-10-01T12:42:12.010Z,25.62
2023-10-01T12:44:29.689Z,25.67
2023-10-01T12:46:47.668Z,25.68
2023-10-01T12:49:05.091Z,25.68
2023-10-01T12:51:22.160Z,25.50
2023-10-01T12:53:39.476Z,25.57
2023-10-01T12:55:56.404Z,25.54
2023-10-01T12:58:13.387Z,25.32
2023-10-01T13:00:30.321Z,25.25
2023-10-01T13:02:47.493Z,25.30
2023-10-01T13:05:05.073Z,25.47
2023-10-01T13:07:22.461Z,25.27
2023-10-01T13:09:40.399Z,25.30
2023-10-01T13:11:57.317Z,25.38
2023-10-01T13:14:15.638Z,25.53
2023-10-01T13:16:32.989Z,25.54
2023-10-01T13:18:50.113Z,25.57
2023-10-01T13:21:07.429Z,25.73
2023-10-01T13:23:24.756Z,25.79
2023-10-01T13:25:42.262Z,25.85
2023-10-01T13:28:00.430Z,25.94
2023-10-01T13:30:17.702Z,25.94
2023-10-01T13:32:35.043Z,25.85
2023-10-01T13:34:52.404Z,25.68
2023-10-01T13:37:09.494Z,25.73
2023-10-01T13:39:26.879Z,25.86
2023-10-01T13:41:43.846Z,25.85
2023-10-01T13:44:00.784Z,25.79
2023-10-01T13:46:18.157Z,25.84
2023-10-01T13:48:35.514Z,25.73
2023-10-01T13:50:52.797Z,25.69
2023-10-01T13:53:10.131Z,25.71
2023-10-01T13:55:27.393Z,25.55
2023-10-01T13:57:45.124Z,25.62
2023-10-01T14:00:02.550Z,25.53
2023-10-01T14:02:19.953Z,25.53
2023-10-01T14:04:37.374Z,25.56
2023-10-01T14:06:54.736Z,25.67
2023-10-01T14:09:12.003Z,25.71
2023-10-01T14:11:29.397Z,25.69
2023-10-01T14:13:49.572Z,25.67
2023-10-01T14:16:07.335Z,25.73
2023-10-01T14:18:35.912Z,25.54
2023-10-01T14:20:53.929Z,25.51
2023-10-01T14:23:11.372Z,25.60
2023-10-01T14:25:29.730Z,25.64
2023-10-01T14:27:47.028Z,25.70
2023-10-01T14:30:04.411Z,25.60
2023-10-01T14:32:21.366Z,25.67
2023-10-01T14:34:38.915Z,25.72
2023-10-01T14:36:56.456Z,25.61
2023-10-01T14:39:13.900Z,25.64
2023-10-01T14:41:31.340Z,25.90
2023-10-01T14:43:48.674Z,25.77
2023-10-01T14:46:06.971Z,25.76
2023-10-01T14:48:25.421Z,25.91
2023-10-01T14:50:43.394Z,25.67
2023-10-01T14:53:00.642Z,25.74
2023-10-01T14:55:18.608Z,25.94
2023-10-01T14:57:36.409Z,25.88
2023-10-01T14:59:53.745Z,26.00
2023-10-01T15:02:10.779Z,25.71
2023-10-01T15:04:27.896Z,25.67
2023-10-01T15:06:46.236Z,25.72
2023-10-01T15:09:04.670Z,25.78
2023-10-01T15:11:22.066Z,25.74
2023-10-01T15:13:40.786Z,25.85
2023-10-01T15:16:10.545Z,25.86
2023-10-01T15:18:37.301Z,25.77
2023-10-01T15:20:54.626Z,25.93
2023-10-01T15:23:11.922Z,25.97
2023-10-01T15:25:30.067Z,25.76
2023-10-01T15:27:47.369Z,25.73
2023-10-01T15:30:05.250Z,25.33
2023-10-01T15:32:22.640Z,25.43
2023-10-01T15:34:40.092Z,25.35
2023-10-01T15:36:57.447Z,25.19
2023-10-01T15:39:14.727Z,25.26
2023-10-01T15:41:31.704Z,25.38
2023-10-01T15:43:49.112Z,25.49
2023-10-01T15:46:06.451Z,25.27
2023-10-01T15:48:23.817Z,25.20
2023-10-01T15:50:41.259Z,25.29
2023-10-01T15:52:58.645Z,24.92
2023-10-01T15:55:17.019Z,24.57
2023-10-01T15:57:34.402Z,24.16
2023-10-01T15:59:51.649Z,23.85
2023-10-01T16:02:08.681Z,23.60
2023-10-01T16:04:26.076Z,23.02
2023-10-01T16:06:44.556Z,22.49
2023-10-01T16:09:04.208Z,22.01
2023-10-01T16:11:21.199Z,21.53
2023-10-01T16:13:38.610Z,21.20
2023-10-01T16:15:55.931Z,20.94
2023-10-01T16:18:13.265Z,20.68
2023-10-01T16:20:34.122Z,20.48
2023-10-01T16:22:51.986Z,20.29
2023-10-01T16:25:09.403Z,20.16
2023-10-01T16:27:26.759Z,20.01
2023-10-01T16:29:45.187Z,19.84
2023-10-01T16:32:02.620Z,19.70
2023-10-01T16:34:20.070Z,19.59
2023-10-01T16:36:37.496Z,19.47
2023-10-01T16:38:55.127Z,19.37
2023-10-01T16:41:13.471Z,19.28
2023-10-01T16:43:30.765Z,19.20
2023-10-01T16:45:47.792Z,19.12
2023-10-01T16:48:05.266Z,19.05
2023-10-01T16:50:22.566Z,18.96
2023-10-01T16:52:39.578Z,18.88
2023-10-01T16:54:56.850Z,18.80
2023-10-01T16:57:14.331Z,18.70
2023-10-01T16:59:31.793Z,18.61
2023-10-01T17:01:49.120Z,18.53
2023-10-01T17:04:06.625Z,18.46
2023-10-01T17:06:24.111Z,18.40
2023-10-01T17:08:41.621Z,18.34
2023-10-01T17:10:59.947Z,18.25
2023-10-01T17:13:17.294Z,18.18
2023-10-01T17:15:34.711Z,18.11
2023-10-01T17:17:54.788Z,18.03
2023-10-01T17:20:12.085Z,17.96
2023-10-01T17:22:29.132Z,17.90
2023-10-01T17:24:46.422Z,17.83
2023-10-01T17:27:03.848Z,17.77
2023-10-01T17:29:21.196Z,17.67
2023-10-01T17:31:38.377Z,17.54
2023-10-01T17:33:55.881Z,17.49
2023-10-01T17:36:12.953Z,17.46
2023-10-01T17:38:30.384Z,17.42
2023-10-01T17:40:47.784Z,17.33
2023-10-01T17:43:04.808Z,17.24
2023-10-01T17:45:22.253Z,17.18
2023-10-01T17:47:39.647Z,17.12
2023-10-01T17:49:57.064Z,17.03
2023-10-01T17:52:14.477Z,16.94
2023-10-01T17:54:31.848Z,16.89
2023-10-01T17:56:49.261Z,16.84
2023-10-01T17:59:07.069Z,16.77
2023-10-01T18:01:24.332Z,16.70
2023-10-01T18:03:41.778Z,16.65
2023-10-01T18:05:58.820Z,16.60
2023-10-01T18:08:16.228Z,16.55
2023-10-01T18:10:33.626Z,16.49
2023-10-01T18:12:50.533Z,16.45
2023-10-01T18:15:07.836Z,16.40
2023-10-01T18:17:25.144Z,16.33
2023-10-01T18:19:42.714Z,16.28
2023-10-01T18:22:00.073Z,16.21
2023-10-01T18:24:17.224Z,16.15
2023-10-01T18:26:34.293Z,16.11
2023-10-01T18:28:51.754Z,16.05
2023-10-01T18:31:09.164Z,16.00
2023-10-01T18:33:26.584Z,15.92
2023-10-01T18:35:43.844Z,15.90
2023-10-01T18:38:01.246Z,15.84
2023-10-01T18:40:18.707Z,15.80
2023-10-01T18:42:36.143Z,15.78
2023-10-01T18:44:53.464Z,15.74
2023-10-01T18:47:10.973Z,15.72
2023-10-01T18:49:28.552Z,15.66
2023-10-01T18:51:45.872Z,15.59
2023-10-01T18:54:03.302Z,15.56
2023-10-01T18:56:20.961Z,15.52
2023-10-01T18:58:38.673Z,15.46
2023-10-01T19:00:56.101Z,15.40
2023-10-01T19:03:13.125Z,15.37
2023-10-01T19:05:30.557Z,15.33
2023-10-01T19:07:49.038Z,15.28
2023-10-01T19:10:06.403Z,15.23
2023-10-01T19:12:23.737Z,15.18
2023-10-01T19:14:41.072Z,15.15
2023-10-01T19:16:58.385Z,15.11
2023-10-01T19:19:15.742Z,15.06
2023-10-01T19:21:33.080Z,14.96
2023-10-01T19:23:50.228Z,14.93
2023-10-01T19:26:07.645Z,14.89
2023-10-01T19:28:25.044Z,14.85
2023-10-01T19:30:43.416Z,14.83
2023-10-01T19:33:00.442Z,14.78
2023-10-01T19:35:18.828Z,14.71
2023-10-01T19:37:36.244Z,14.66
2023-10-01T19:39:53.740Z,14.64
2023-10-01T19:42:10.691Z,14.62
2023-10-01T19:44:27.964Z,14.60
2023-10-01T19:46:45.301Z,14.54
2023-10-01T19:49:02.623Z,14.51
2023-10-01T19:51:19.953Z,14.45
2023-10-01T19:53:37.288Z,14.42
2023-10-01T19:55:54.654Z,14.37
2023-10-01T19:58:12.656Z,14.35
2023-10-01T20:00:30.011Z,14.31
2023-10-01T20:02:47.609Z,14.30
2023-10-01T20:05:05.078Z,14.27
2023-10-01T20:07:22.521Z,14.23
2023-10-01T20:09:40.315Z,14.16
2023-10-01T20:11:57.880Z,14.11
2023-10-01T20:14:15.247Z,14.08
2023-10-01T20:16:32.602Z,14.04
2023-10-01T20:18:50.102Z,14.01
2023-10-01T20:21:07.796Z,13.99
2023-10-01T20:23:26.256Z,13.95
2023-10-01T20:25:43.647Z,13.94
2023-10-01T20:28:01.326Z,13.91
2023-10-01T20:30:19.383Z,13.88
2023-10-01T20:32:36.633Z,13.87
2023-10-01T20:34:53.986Z,13.82
2023-10-01T20:37:12.509Z,13.81
2023-10-01T20:39:30.061Z,13.75
2023-10-01T20:41:47.244Z,13.71
2023-10-01T20:44:04.820Z,13.68
2023-10-01T20:46:22.145Z,13.62
2023-10-01T20:48:39.518Z,13.59
2023-10-01T20:50:56.523Z,13.57
2023-10-01T20:53:13.742Z,13.54
2023-10-01T20:55:31.197Z,13.51
2023-10-01T20:57:49.582Z,13.47
2023-10-01T21:00:07.092Z,13.43
2023-10-01T21:02:25.513Z,13.40
2023-10-01T21:04:43.170Z,13.37
2023-10-01T21:07:00.546Z,13.32
2023-10-01T21:09:18.872Z,13.31
2023-10-01T21:11:36.284Z,13.28
2023-10-01T21:13:53.535Z,13.23
2023-10-01T21:16:10.969Z,13.17
2023-10-01T21:18:30.796Z,13.11
2023-10-01T21:20:48.200Z,13.10
2023-10-01T21:23:05.623Z,13.11
2023-10-01T21:25:23.852Z,13.09
2023-10-01T21:27:41.448Z,13.07
2023-10-01T21:29:59.802Z,13.04
2023-10-01T21:32:17.338Z,13.01
2023-10-01T21:34:34.947Z,12.96
2023-10-01T21:36:52.232Z,12.95
2023-10-01T21:39:09.455Z,12.93
2023-10-01T21:41:26.891Z,12.89
2023-10-01T21:43:45.486Z,12.86
2023-10-01T21:46:02.840Z,12.81
2023-10-01T21:48:20.141Z,12.80
2023-10-01T21:50:37.241Z,12.79
2023-10-01T21:52:54.485Z,12.77
2023-10-01T21:55:11.789Z,12.76
2023-10-01T21:57:28.864Z,12.73
2023-10-01T21:59:46.152Z,12.69
2023-10-01T22:02:03.569Z,12.66
2023-10-01T22:04:21.007Z,12.63
2023-10-01T22:06:38.414Z,12.61
2023-10-01T22:08:55.768Z,12.58
2023-10-01T22:11:13.022Z,12.55
2023-10-01T22:13:30.696Z,12.53
2023-10-01T22:15:48.501Z,12.50
2023-10-01T22:18:06.361Z,12.44
2023-10-01T22:20:23.312Z,12.41
2023-10-01T22:22:50.691Z,12.39
2023-10-01T22:25:08.730Z,12.37
2023-10-01T22:27:26.106Z,12.35
2023-10-01T22:29:43.162Z,12.33
2023-10-01T22:32:00.926Z,12.30
2023-10-01T22:34:18.385Z,12.28
2023-10-01T22:36:35.484Z,12.24
2023-10-01T22:38:53.532Z,12.21
2023-10-01T22:41:10.852Z,12.17
2023-10-01T22:43:27.959Z,12.15
2023-10-01T22:45:45.332Z,12.13
2023-10-01T22:48:02.657Z,12.09
2023-10-01T22:50:19.808Z,12.08
2023-10-01T22:52:36.833Z,12.06
2023-10-01T22:54:54.141Z,12.06
2023-10-01T22:57:11.152Z,12.04
2023-10-01T22:59:28.536Z,12.00
2023-10-01T23:01:45.550Z,11.99
2023-10-01T23:04:02.927Z,11.98
2023-10-01T23:06:20.154Z,11.97
2023-10-01T23:08:37.387Z,11.97
2023-10-01T23:10:54.518Z,11.95
2023-10-01T23:13:12.964Z,11.91
2023-10-01T23:15:30.389Z,11.88
2023-10-01T23:17:47.782Z,11.86
2023-10-01T23:20:05.895Z,11.80
2023-10-01T23:22:22.923Z,11.76
2023-10-01T23:24:41.217Z,11.71
2023-10-01T23:27:01.026Z,11.68
2023-10-01T23:29:19.057Z,11.69
2023-10-01T23:31:36.471Z,11.67
2023-10-01T23:33:53.670Z,11.66
2023-10-01T23:36:12.235Z,11.64
2023-10-01T23:38:29.606Z,11.63
2023-10-01T23:40:47.021Z,11.63
2023-10-01T23:43:04.008Z,11.59
2023-10-01T23:45:21.294Z,11.56
2023-10-01T23:47:38.593Z,11.53
2023-10-01T23:49:56.023Z,11.50
2023-10-01T23:52:13.448Z,11.45
2023-10-01T23:54:30.734Z,11.46
2023-10-01T23:56:47.772Z,11.47
2023-10-01T23:59:05.111Z,11.45
